createdAt,value
2017-06-02T00:00:48.236Z,0
2017-06-02T00:01:48.219Z,0
2017-06-02T00:02:47.903Z,0
2017-06-02T00:03:48.195Z,0
2017-06-02T00:04:48.167Z,0
2017-06-02T00:05:48.156Z,0
2017-06-02T00:06:47.955Z,0
2017-06-02T00:07:48.155Z,0
2017-06-02T00:08:48.104Z,0
2017-06-02T00:09:48.095Z,0
2017-06-02T00:10:48.383Z,0
2017-06-02T00:11:48.435Z,0
2017-06-02T00:12:48.063Z,0
2017-06-02T00:13:48.343Z,0
2017-06-02T00:14:48.345Z,0
2017-06-02T00:15:48.332Z,0
2017-06-02T00:16:48.309Z,0
2017-06-02T00:17:48.002Z,0
2017-06-02T00:18:48.283Z,0
2017-06-02T00:19:48.263Z,0
2017-06-02T00:20:48.240Z,0
2017-06-02T00:21:48.240Z,0
2017-06-02T00:22:47.978Z,0
2017-06-02T00:23:47.961Z,0
2017-06-02T00:24:48.183Z,0
2017-06-02T00:25:48.182Z,0
2017-06-02T00:26:48.154Z,0
2017-06-02T00:27:48.140Z,0
2017-06-02T00:28:48.127Z,0
2017-06-02T00:29:48.124Z,0
2017-06-02T00:30:48.118Z,0
2017-06-02T00:31:48.075Z,0
2017-06-02T00:32:48.083Z,0
2017-06-02T00:33:47.132Z,0
2017-06-02T00:34:47.759Z,0
2017-06-02T00:35:47.733Z,0
2017-06-02T00:36:48.095Z,0
2017-06-02T00:37:47.803Z,0
2017-06-02T00:38:47.709Z,0
2017-06-02T00:39:47.353Z,0
2017-06-02T00:40:47.958Z,0
2017-06-02T00:41:47.632Z,0
2017-06-02T00:42:48.002Z,0
2017-06-02T00:43:47.592Z,0
2017-06-02T00:44:48.018Z,0
2017-06-02T00:45:47.271Z,0
2017-06-02T00:46:47.551Z,0
2017-06-02T00:47:47.551Z,0
2017-06-02T00:48:47.842Z,0
2017-06-02T00:49:47.822Z,0
2017-06-02T00:50:47.191Z,0
2017-06-02T00:51:47.795Z,0
2017-06-02T00:52:47.170Z,0
2017-06-02T00:53:47.462Z,0
2017-06-02T00:54:47.743Z,0
2017-06-02T00:55:47.848Z,0
2017-06-02T00:56:47.713Z,0
2017-06-02T00:57:47.750Z,0
2017-06-02T00:58:47.682Z,0
2017-06-02T00:59:47.781Z,0
2017-06-02T01:00:47.753Z,0
2017-06-02T01:01:47.349Z,0
2017-06-02T01:02:47.010Z,0
2017-06-02T01:03:47.002Z,0
2017-06-02T01:04:47.709Z,0
2017-06-02T01:05:47.619Z,0
2017-06-02T01:06:47.260Z,0
2017-06-02T01:07:47.259Z,0
2017-06-02T01:08:47.258Z,0
2017-06-02T01:09:47.225Z,0
2017-06-02T01:10:47.202Z,0
2017-06-02T01:11:47.480Z,0
2017-06-02T01:12:47.173Z,0
2017-06-02T01:13:47.146Z,0
2017-06-02T01:14:47.135Z,0
2017-06-02T01:15:47.130Z,0
2017-06-02T01:16:47.114Z,0
2017-06-02T01:17:47.090Z,0
2017-06-02T01:18:47.091Z,0
2017-06-02T01:19:47.410Z,0
2017-06-02T01:20:47.402Z,0
2017-06-02T01:21:47.393Z,0
2017-06-02T01:22:47.036Z,0
2017-06-02T01:23:46.393Z,0
2017-06-02T01:24:46.985Z,0
2017-06-02T01:25:47.001Z,0
2017-06-02T01:26:46.362Z,0
2017-06-02T01:27:46.950Z,0
2017-06-02T01:28:47.266Z,0
2017-06-02T01:29:46.903Z,0
2017-06-02T01:30:46.902Z,0
2017-06-02T01:31:46.920Z,0
2017-06-02T01:32:47.180Z,0
2017-06-02T01:33:46.872Z,0
2017-06-02T01:34:47.141Z,0
2017-06-02T01:35:47.115Z,0
2017-06-02T01:36:47.122Z,0
2017-06-02T01:37:47.119Z,0
2017-06-02T01:38:46.756Z,0
2017-06-02T01:39:47.074Z,0
2017-06-02T01:40:46.171Z,0
2017-06-02T01:41:47.024Z,0
2017-06-02T01:42:46.731Z,0
2017-06-02T01:43:46.721Z,0
2017-06-02T01:44:46.391Z,0
2017-06-02T01:45:46.679Z,0
2017-06-02T01:46:46.481Z,0
2017-06-02T01:47:46.633Z,0
2017-06-02T01:48:46.954Z,0
2017-06-02T01:49:46.916Z,0
2017-06-02T01:50:46.902Z,0
2017-06-02T01:51:46.572Z,0
2017-06-02T01:52:46.890Z,0
2017-06-02T01:53:46.883Z,0
2017-06-02T01:54:46.834Z,0
2017-06-02T01:55:46.219Z,0
2017-06-02T01:56:46.503Z,0
2017-06-02T01:57:46.513Z,0
2017-06-02T01:58:46.500Z,0
2017-06-02T01:59:46.482Z,0
2017-06-02T02:00:45.831Z,0
2017-06-02T02:01:46.432Z,0
2017-06-02T02:02:46.411Z,0
2017-06-02T02:03:46.700Z,0
2017-06-02T02:04:46.677Z,0
2017-06-02T02:05:46.675Z,0
2017-06-02T02:06:46.130Z,0
2017-06-02T02:07:46.638Z,0
2017-06-02T02:08:46.625Z,0
2017-06-02T02:09:46.011Z,0
2017-06-02T02:10:46.292Z,0
2017-06-02T02:11:45.989Z,0
2017-06-02T02:12:46.259Z,0
2017-06-02T02:13:46.543Z,0
2017-06-02T02:14:46.221Z,0
2017-06-02T02:15:45.920Z,0
2017-06-02T02:16:45.942Z,0
2017-06-02T02:17:45.880Z,0
2017-06-02T02:18:46.468Z,0
2017-06-02T02:19:45.522Z,0
2017-06-02T02:20:46.440Z,0
2017-06-02T02:21:46.420Z,0
2017-06-02T02:22:46.409Z,0
2017-06-02T02:23:46.382Z,0
2017-06-02T02:24:46.392Z,0
2017-06-02T02:25:45.761Z,0
2017-06-02T02:26:46.128Z,0
2017-06-02T02:27:46.011Z,0
2017-06-02T02:28:45.702Z,0
2017-06-02T02:29:46.291Z,0
2017-06-02T02:30:46.032Z,0
2017-06-02T02:31:45.970Z,0
2017-06-02T02:32:46.250Z,0
2017-06-02T02:33:46.012Z,0
2017-06-02T02:34:45.598Z,0
2017-06-02T02:35:45.966Z,0
2017-06-02T02:36:46.200Z,0
2017-06-02T02:37:46.230Z,4
2017-06-02T02:38:45.931Z,4
2017-06-02T02:39:46.238Z,0
2017-06-02T02:40:45.883Z,0
2017-06-02T02:41:46.110Z,4
2017-06-02T02:42:46.093Z,4
2017-06-02T02:43:46.079Z,0
2017-06-02T02:44:45.780Z,4
2017-06-02T02:45:45.743Z,4
2017-06-02T02:46:45.751Z,4
2017-06-02T02:47:45.761Z,4
2017-06-02T02:48:46.002Z,4
2017-06-02T02:49:45.991Z,8
2017-06-02T02:50:45.660Z,8
2017-06-02T02:51:45.343Z,8
2017-06-02T02:52:45.952Z,8
2017-06-02T02:53:45.920Z,12
2017-06-02T02:54:45.603Z,12
2017-06-02T02:55:45.592Z,12
2017-06-02T02:56:45.882Z,12
2017-06-02T02:57:45.242Z,16
2017-06-02T02:58:45.844Z,16
2017-06-02T02:59:45.510Z,20
2017-06-02T03:00:45.881Z,24
2017-06-02T03:01:45.492Z,24
2017-06-02T03:02:45.822Z,28
2017-06-02T03:03:45.765Z,32
2017-06-02T03:04:45.770Z,36
2017-06-02T03:05:45.740Z,40
2017-06-02T03:06:45.559Z,44
2017-06-02T03:07:45.387Z,44
2017-06-02T03:08:45.061Z,48
2017-06-02T03:09:45.727Z,56
2017-06-02T03:10:45.662Z,56
2017-06-02T03:11:45.743Z,64
2017-06-02T03:12:45.607Z,68
2017-06-02T03:13:45.586Z,72
2017-06-02T03:14:45.281Z,84
2017-06-02T03:15:45.721Z,88
2017-06-02T03:16:45.563Z,92
2017-06-02T03:17:45.550Z,100
2017-06-02T03:18:45.209Z,108
2017-06-02T03:19:45.191Z,116
2017-06-02T03:20:45.535Z,124
2017-06-02T03:21:45.171Z,132
2017-06-02T03:22:44.598Z,140
2017-06-02T03:23:44.824Z,152
2017-06-02T03:24:44.870Z,164
2017-06-02T03:25:45.102Z,172
2017-06-02T03:26:44.577Z,184
2017-06-02T03:27:45.429Z,196
2017-06-02T03:28:44.806Z,208
2017-06-02T03:29:44.431Z,220
2017-06-02T03:30:45.064Z,228
2017-06-02T03:31:45.020Z,240
2017-06-02T03:32:44.701Z,252
2017-06-02T03:33:44.979Z,264
2017-06-02T03:34:44.973Z,272
2017-06-02T03:35:44.937Z,284
2017-06-02T03:36:44.631Z,296
2017-06-02T03:37:45.222Z,304
2017-06-02T03:38:44.902Z,316
2017-06-02T03:39:45.175Z,328
2017-06-02T03:40:44.867Z,344
2017-06-02T03:41:44.601Z,360
2017-06-02T03:42:44.840Z,376
2017-06-02T03:43:44.840Z,396
2017-06-02T03:44:44.812Z,416
2017-06-02T03:45:44.790Z,436
2017-06-02T03:46:44.765Z,452
2017-06-02T03:47:44.756Z,468
2017-06-02T03:48:44.742Z,484
2017-06-02T03:49:44.716Z,508
2017-06-02T03:50:44.700Z,524
2017-06-02T03:51:44.710Z,544
2017-06-02T03:52:44.362Z,568
2017-06-02T03:53:44.980Z,580
2017-06-02T03:54:44.355Z,596
2017-06-02T03:55:44.623Z,612
2017-06-02T03:56:44.636Z,628
2017-06-02T03:57:44.594Z,648
2017-06-02T03:58:44.578Z,664
2017-06-02T03:59:44.594Z,684
2017-06-02T04:00:44.240Z,704
2017-06-02T04:01:44.272Z,720
2017-06-02T04:02:43.892Z,740
2017-06-02T04:03:44.503Z,768
2017-06-02T04:04:44.557Z,792
2017-06-02T04:05:44.781Z,816
2017-06-02T04:06:44.770Z,844
2017-06-02T04:07:44.733Z,872
2017-06-02T04:08:44.121Z,900
2017-06-02T04:09:44.541Z,928
2017-06-02T04:10:44.723Z,944
2017-06-02T04:11:44.682Z,968
2017-06-02T04:12:44.094Z,988
2017-06-02T04:13:44.352Z,1032
2017-06-02T04:14:44.632Z,1072
2017-06-02T04:15:44.624Z,1088
2017-06-02T04:16:44.602Z,1080
2017-06-02T04:17:44.274Z,1104
2017-06-02T04:18:44.572Z,1152
2017-06-02T04:19:44.260Z,1200
2017-06-02T04:20:44.227Z,1248
2017-06-02T04:21:44.531Z,1264
2017-06-02T04:22:43.902Z,1276
2017-06-02T04:23:43.891Z,1272
2017-06-02T04:24:44.568Z,1284
2017-06-02T04:25:44.277Z,1296
2017-06-02T04:26:44.252Z,1320
2017-06-02T04:27:44.440Z,1336
2017-06-02T04:28:44.231Z,1360
2017-06-02T04:29:44.133Z,1364
2017-06-02T04:30:43.836Z,1352
2017-06-02T04:31:44.116Z,1340
2017-06-02T04:32:44.098Z,1344
2017-06-02T04:33:44.350Z,1336
2017-06-02T04:34:43.412Z,1360
2017-06-02T04:35:44.364Z,1364
2017-06-02T04:36:43.770Z,1360
2017-06-02T04:37:44.283Z,1376
2017-06-02T04:38:44.034Z,1388
2017-06-02T04:39:43.321Z,1388
2017-06-02T04:40:43.920Z,1400
2017-06-02T04:41:43.636Z,1392
2017-06-02T04:42:44.192Z,1360
2017-06-02T04:43:44.042Z,1344
2017-06-02T04:44:43.640Z,1336
2017-06-02T04:45:44.203Z,1324
2017-06-02T04:46:43.823Z,1368
2017-06-02T04:47:43.901Z,1396
2017-06-02T04:48:44.087Z,1456
2017-06-02T04:49:43.781Z,1520
2017-06-02T04:50:44.071Z,1580
2017-06-02T04:51:43.890Z,1628
2017-06-02T04:52:43.773Z,1672
2017-06-02T04:53:44.138Z,1700
2017-06-02T04:54:43.785Z,1744
2017-06-02T04:55:44.116Z,1788
2017-06-02T04:56:43.995Z,1880
2017-06-02T04:57:43.338Z,1952
2017-06-02T04:58:43.661Z,2052
2017-06-02T04:59:43.642Z,2096
2017-06-02T05:00:43.650Z,2180
2017-06-02T05:01:43.960Z,2256
2017-06-02T05:02:43.605Z,2308
2017-06-02T05:03:43.244Z,2312
2017-06-02T05:04:43.869Z,2296
2017-06-02T05:05:43.612Z,2356
2017-06-02T05:06:43.563Z,2416
2017-06-02T05:07:43.502Z,2588
2017-06-02T05:08:43.469Z,2716
2017-06-02T05:09:43.791Z,2876
2017-06-02T05:10:43.855Z,2972
2017-06-02T05:11:43.505Z,3012
2017-06-02T05:12:43.838Z,3028
2017-06-02T05:13:42.782Z,2972
2017-06-02T05:14:43.403Z,3036
2017-06-02T05:15:43.376Z,3040
2017-06-02T05:16:43.377Z,2956
2017-06-02T05:17:43.369Z,2912
2017-06-02T05:18:43.322Z,2852
2017-06-02T05:19:43.314Z,2816
2017-06-02T05:20:43.624Z,2740
2017-06-02T05:21:43.289Z,2752
2017-06-02T05:22:43.265Z,2836
2017-06-02T05:23:43.570Z,2916
2017-06-02T05:24:43.233Z,2976
2017-06-02T05:25:42.931Z,3044
2017-06-02T05:26:43.218Z,3116
2017-06-02T05:27:43.605Z,3188
2017-06-02T05:28:42.921Z,3236
2017-06-02T05:29:43.524Z,3292
2017-06-02T05:30:43.541Z,3340
2017-06-02T05:31:43.214Z,3392
2017-06-02T05:32:43.114Z,3436
2017-06-02T05:33:43.463Z,3484
2017-06-02T05:34:43.394Z,3536
2017-06-02T05:35:43.164Z,3600
2017-06-02T05:36:43.079Z,3648
2017-06-02T05:37:43.398Z,3696
2017-06-02T05:38:42.406Z,3732
2017-06-02T05:39:43.018Z,3768
2017-06-02T05:40:43.005Z,3796
2017-06-02T05:41:42.997Z,3828
2017-06-02T05:42:42.975Z,3868
2017-06-02T05:43:43.271Z,3908
2017-06-02T05:44:43.309Z,3944
2017-06-02T05:45:43.280Z,3980
2017-06-02T05:46:43.213Z,4016
2017-06-02T05:47:43.200Z,4052
2017-06-02T05:48:42.871Z,4084
2017-06-02T05:49:43.159Z,4124
2017-06-02T05:50:42.570Z,4168
2017-06-02T05:51:43.154Z,4216
2017-06-02T05:52:42.823Z,4264
2017-06-02T05:53:43.121Z,4304
2017-06-02T05:54:42.782Z,4344
2017-06-02T05:55:42.826Z,4384
2017-06-02T05:56:42.440Z,4420
2017-06-02T05:57:42.734Z,4444
2017-06-02T05:58:42.739Z,4472
2017-06-02T05:59:42.407Z,4500
2017-06-02T06:00:42.710Z,4536
2017-06-02T06:01:42.986Z,4564
2017-06-02T06:02:42.971Z,4612
2017-06-02T06:03:42.960Z,4656
2017-06-02T06:04:42.332Z,4696
2017-06-02T06:05:42.920Z,4736
2017-06-02T06:06:42.638Z,4780
2017-06-02T06:07:42.590Z,4824
2017-06-02T06:08:42.596Z,4884
2017-06-02T06:09:42.876Z,4948
2017-06-02T06:10:42.669Z,5004
2017-06-02T06:11:42.287Z,5048
2017-06-02T06:12:42.890Z,5092
2017-06-02T06:13:42.200Z,5128
2017-06-02T06:14:42.512Z,5156
2017-06-02T06:15:42.800Z,5192
2017-06-02T06:16:42.560Z,5236
2017-06-02T06:17:42.463Z,5276
2017-06-02T06:18:42.530Z,5312
2017-06-02T06:19:42.421Z,5356
2017-06-02T06:20:42.516Z,5396
2017-06-02T06:21:42.418Z,5448
2017-06-02T06:22:42.443Z,5496
2017-06-02T06:23:42.071Z,5540
2017-06-02T06:24:42.660Z,5576
2017-06-02T06:25:42.105Z,5612
2017-06-02T06:26:42.031Z,5656
2017-06-02T06:27:42.530Z,5696
2017-06-02T06:28:41.994Z,5732
2017-06-02T06:29:42.349Z,5788
2017-06-02T06:30:42.068Z,5836
2017-06-02T06:31:42.062Z,5900
2017-06-02T06:32:42.339Z,5968
2017-06-02T06:33:42.224Z,6036
2017-06-02T06:34:42.312Z,6100
2017-06-02T06:35:42.250Z,6152
2017-06-02T06:36:42.203Z,6224
2017-06-02T06:37:42.283Z,6292
2017-06-02T06:38:42.220Z,6368
2017-06-02T06:39:42.166Z,6456
2017-06-02T06:40:42.455Z,6564
2017-06-02T06:41:41.809Z,6680
2017-06-02T06:42:41.799Z,6812
2017-06-02T06:43:42.416Z,6936
2017-06-02T06:44:42.482Z,7060
2017-06-02T06:45:42.089Z,7188
2017-06-02T06:46:42.173Z,7328
2017-06-02T06:47:42.041Z,7496
2017-06-02T06:48:42.135Z,7700
2017-06-02T06:49:42.121Z,7872
2017-06-02T06:50:42.100Z,8004
2017-06-02T06:51:42.010Z,8144
2017-06-02T06:52:42.285Z,8300
2017-06-02T06:53:42.279Z,8524
2017-06-02T06:54:41.958Z,8816
2017-06-02T06:55:42.236Z,9136
2017-06-02T06:56:42.311Z,9376
2017-06-02T06:57:41.642Z,9464
2017-06-02T06:58:41.898Z,9312
2017-06-02T06:59:42.262Z,9192
2017-06-02T07:00:42.281Z,9216
2017-06-02T07:01:41.260Z,9244
2017-06-02T07:02:41.536Z,9692
2017-06-02T07:03:41.851Z,9780
2017-06-02T07:04:41.841Z,9368
2017-06-02T07:05:41.808Z,9244
2017-06-02T07:06:41.856Z,9628
2017-06-02T07:07:41.784Z,9920
2017-06-02T07:08:41.479Z,10216
2017-06-02T07:09:41.766Z,10444
2017-06-02T07:10:41.738Z,10576
2017-06-02T07:11:41.439Z,10452
2017-06-02T07:12:42.106Z,10096
2017-06-02T07:13:42.015Z,10268
2017-06-02T07:14:41.081Z,10544
2017-06-02T07:15:42.128Z,10288
2017-06-02T07:16:41.064Z,10124
2017-06-02T07:17:41.661Z,9380
2017-06-02T07:18:41.639Z,9132
2017-06-02T07:19:41.031Z,9220
2017-06-02T07:20:41.659Z,9288
2017-06-02T07:21:41.937Z,9176
2017-06-02T07:22:41.607Z,9540
2017-06-02T07:23:40.990Z,9464
2017-06-02T07:24:41.894Z,9332
2017-06-02T07:25:41.892Z,9804
2017-06-02T07:26:40.989Z,10136
2017-06-02T07:27:41.862Z,10788
2017-06-02T07:28:41.237Z,10544
2017-06-02T07:29:41.845Z,10608
2017-06-02T07:30:41.221Z,11052
2017-06-02T07:31:40.898Z,12076
2017-06-02T07:32:41.821Z,11796
2017-06-02T07:33:41.594Z,11400
2017-06-02T07:34:41.170Z,11308
2017-06-02T07:35:41.478Z,11500
2017-06-02T07:36:41.456Z,12000
2017-06-02T07:37:41.569Z,11888
2017-06-02T07:38:41.139Z,11876
2017-06-02T07:39:41.532Z,11880
2017-06-02T07:40:41.407Z,11892
2017-06-02T07:41:41.408Z,12112
2017-06-02T07:42:41.389Z,12332
2017-06-02T07:43:41.379Z,12536
2017-06-02T07:44:41.691Z,13080
2017-06-02T07:45:41.677Z,13732
2017-06-02T07:46:41.052Z,13940
2017-06-02T07:47:41.054Z,14028
2017-06-02T07:48:41.649Z,13568
2017-06-02T07:49:41.008Z,12544
2017-06-02T07:50:41.003Z,12132
2017-06-02T07:51:41.324Z,12248
2017-06-02T07:52:41.288Z,12472
2017-06-02T07:53:40.980Z,12560
2017-06-02T07:54:41.267Z,12924
2017-06-02T07:55:41.289Z,13096
2017-06-02T07:56:40.952Z,13300
2017-06-02T07:57:41.606Z,13776
2017-06-02T07:58:41.560Z,13776
2017-06-02T07:59:41.318Z,14148
2017-06-02T08:00:41.540Z,14280
2017-06-02T08:01:41.268Z,14508
2017-06-02T08:02:41.186Z,14300
2017-06-02T08:03:41.550Z,14772
2017-06-02T08:04:41.579Z,14776
2017-06-02T08:05:40.874Z,14768
2017-06-02T08:06:41.169Z,14720
2017-06-02T08:07:41.147Z,14896
2017-06-02T08:08:40.837Z,14288
2017-06-02T08:09:41.127Z,14368
2017-06-02T08:10:41.132Z,13900
2017-06-02T08:11:41.425Z,14068
2017-06-02T08:12:41.417Z,14316
2017-06-02T08:13:41.120Z,14676
2017-06-02T08:14:41.395Z,14944
2017-06-02T08:15:41.077Z,14676
2017-06-02T08:16:41.085Z,15184
2017-06-02T08:17:40.795Z,15304
2017-06-02T08:18:41.052Z,15444
2017-06-02T08:19:41.345Z,15500
2017-06-02T08:20:41.040Z,15668
2017-06-02T08:21:41.386Z,15996
2017-06-02T08:22:41.325Z,15916
2017-06-02T08:23:41.029Z,15812
2017-06-02T08:24:41.009Z,15492
2017-06-02T08:25:40.677Z,15416
2017-06-02T08:26:40.983Z,15280
2017-06-02T08:27:40.970Z,15636
2017-06-02T08:28:41.265Z,15964
2017-06-02T08:29:40.957Z,16428
2017-06-02T08:30:41.240Z,17056
2017-06-02T08:31:40.945Z,17376
2017-06-02T08:32:41.233Z,17472
2017-06-02T08:33:41.245Z,17728
2017-06-02T08:34:40.924Z,17856
2017-06-02T08:35:41.196Z,17760
2017-06-02T08:36:40.595Z,17248
2017-06-02T08:37:40.921Z,16452
2017-06-02T08:38:40.587Z,15956
2017-06-02T08:39:41.207Z,15728
2017-06-02T08:40:40.958Z,15708
2017-06-02T08:41:40.861Z,15772
2017-06-02T08:42:40.961Z,15872
2017-06-02T08:43:40.831Z,15992
2017-06-02T08:44:40.868Z,16004
2017-06-02T08:45:41.181Z,16040
2017-06-02T08:46:40.830Z,16336
2017-06-02T08:47:40.907Z,17216
2017-06-02T08:48:40.808Z,18144
2017-06-02T08:49:41.107Z,19104
2017-06-02T08:50:40.796Z,18912
2017-06-02T08:51:41.147Z,18912
2017-06-02T08:52:40.775Z,19648
2017-06-02T08:53:41.066Z,20128
2017-06-02T08:54:40.788Z,20000
2017-06-02T08:55:41.116Z,19808
2017-06-02T08:56:40.737Z,20288
2017-06-02T08:57:40.740Z,21120
2017-06-02T08:58:40.105Z,26400
2017-06-02T08:59:40.737Z,33216
2017-06-02T09:00:41.011Z,35392
2017-06-02T09:01:41.057Z,37184
2017-06-02T09:02:41.009Z,35616
2017-06-02T09:03:40.376Z,26880
2017-06-02T09:04:40.987Z,17248
2017-06-02T09:05:40.971Z,14100
2017-06-02T09:06:40.975Z,11252
2017-06-02T09:07:40.975Z,11360
2017-06-02T09:08:40.977Z,11988
2017-06-02T09:09:40.668Z,12128
2017-06-02T09:10:40.677Z,12264
2017-06-02T09:11:40.740Z,11556
2017-06-02T09:12:40.929Z,11940
2017-06-02T09:13:40.953Z,11900
2017-06-02T09:14:40.927Z,11088
2017-06-02T09:15:40.920Z,11564
2017-06-02T09:16:41.032Z,14832
2017-06-02T09:17:40.594Z,14688
2017-06-02T09:18:41.014Z,15564
2017-06-02T09:19:40.564Z,30720
2017-06-02T09:20:40.902Z,17696
2017-06-02T09:21:40.264Z,30976
2017-06-02T09:22:40.562Z,22496
2017-06-02T09:23:40.869Z,54560
2017-06-02T09:24:40.841Z,53376
2017-06-02T09:25:40.953Z,47328
2017-06-02T09:26:40.843Z,42976
2017-06-02T09:27:40.524Z,23616
2017-06-02T09:28:40.503Z,25824
2017-06-02T09:29:40.871Z,38688
2017-06-02T09:30:40.490Z,51168
2017-06-02T09:31:40.811Z,50240
2017-06-02T09:32:40.791Z,36832
2017-06-02T09:33:40.802Z,52960
2017-06-02T09:34:40.481Z,55776
2017-06-02T09:35:40.158Z,58496
2017-06-02T09:36:40.158Z,57696
2017-06-02T09:37:40.254Z,52512
2017-06-02T09:38:40.440Z,53728
2017-06-02T09:39:40.439Z,53472
2017-06-02T09:40:40.440Z,53984
2017-06-02T09:41:40.439Z,55520
2017-06-02T09:42:40.431Z,52672
2017-06-02T09:43:40.220Z,47776
2017-06-02T09:44:40.731Z,48448
2017-06-02T09:45:40.420Z,52288
2017-06-02T09:46:40.486Z,53600
2017-06-02T09:47:40.471Z,51136
2017-06-02T09:48:40.101Z,49760
2017-06-02T09:49:40.422Z,51328
2017-06-02T09:50:40.463Z,50432
2017-06-02T09:51:40.460Z,49152
2017-06-02T09:52:40.711Z,46336
2017-06-02T09:53:40.128Z,47264
2017-06-02T09:54:40.401Z,49088
2017-06-02T09:55:40.715Z,48320
2017-06-02T09:56:40.391Z,46368
2017-06-02T09:57:40.782Z,46304
2017-06-02T09:58:40.410Z,46560
2017-06-02T09:59:40.389Z,47680
2017-06-02T10:00:40.400Z,48768
2017-06-02T10:01:40.371Z,45312
2017-06-02T10:02:40.374Z,45792
2017-06-02T10:03:40.689Z,45920
2017-06-02T10:04:40.071Z,45952
2017-06-02T10:05:40.809Z,46112
2017-06-02T10:06:40.682Z,46336
2017-06-02T10:07:39.800Z,46464
2017-06-02T10:08:40.650Z,46880
2017-06-02T10:09:40.362Z,43616
2017-06-02T10:10:40.052Z,40736
2017-06-02T10:11:40.660Z,41952
2017-06-02T10:12:40.648Z,42976
2017-06-02T10:13:40.341Z,42560
2017-06-02T10:14:40.349Z,39008
2017-06-02T10:15:40.728Z,38752
2017-06-02T10:16:40.054Z,39040
2017-06-02T10:17:40.397Z,39776
2017-06-02T10:18:40.633Z,38720
2017-06-02T10:19:40.649Z,36384
2017-06-02T10:20:40.636Z,32416
2017-06-02T10:21:40.339Z,22944
2017-06-02T10:22:40.002Z,14408
2017-06-02T10:23:40.629Z,12168
2017-06-02T10:24:40.335Z,11996
2017-06-02T10:25:40.607Z,11904
2017-06-02T10:26:40.611Z,11852
2017-06-02T10:27:39.993Z,11816
2017-06-02T10:28:40.296Z,11828
2017-06-02T10:29:40.280Z,11824
2017-06-02T10:30:39.989Z,11888
2017-06-02T10:31:40.308Z,11940
2017-06-02T10:32:40.330Z,11992
2017-06-02T10:33:40.570Z,12004
2017-06-02T10:34:40.648Z,11984
2017-06-02T10:35:40.576Z,11964
2017-06-02T10:36:40.569Z,11960
2017-06-02T10:37:40.251Z,11952
2017-06-02T10:38:40.256Z,11988
2017-06-02T10:39:40.619Z,12028
2017-06-02T10:40:40.003Z,12064
2017-06-02T10:41:40.557Z,12064
2017-06-02T10:42:40.549Z,12020
2017-06-02T10:43:39.945Z,11844
2017-06-02T10:44:40.530Z,11808
2017-06-02T10:45:40.539Z,11712
2017-06-02T10:46:40.518Z,11572
2017-06-02T10:47:40.530Z,11672
2017-06-02T10:48:39.917Z,11696
2017-06-02T10:49:40.232Z,11672
2017-06-02T10:50:40.517Z,11684
2017-06-02T10:51:40.520Z,11664
2017-06-02T10:52:40.516Z,11620
2017-06-02T10:53:40.521Z,11500
2017-06-02T10:54:40.258Z,11404
2017-06-02T10:55:39.890Z,11328
2017-06-02T10:56:40.569Z,11220
2017-06-02T10:57:40.177Z,11232
2017-06-02T10:58:40.558Z,11116
2017-06-02T10:59:40.167Z,10972
2017-06-02T11:00:40.462Z,10804
2017-06-02T11:01:40.189Z,10716
2017-06-02T11:02:40.460Z,10600
2017-06-02T11:03:40.508Z,10576
2017-06-02T11:04:40.585Z,10540
2017-06-02T11:05:40.478Z,10572
2017-06-02T11:06:40.431Z,10636
2017-06-02T11:07:40.478Z,10676
2017-06-02T11:08:40.509Z,10664
2017-06-02T11:09:40.427Z,10832
2017-06-02T11:10:39.806Z,11092
2017-06-02T11:11:40.117Z,11448
2017-06-02T11:12:39.837Z,12168
2017-06-02T11:13:40.438Z,13132
2017-06-02T11:14:39.797Z,13824
2017-06-02T11:15:40.416Z,14048
2017-06-02T11:16:39.848Z,13972
2017-06-02T11:17:39.790Z,13420
2017-06-02T11:18:40.389Z,13676
2017-06-02T11:19:40.057Z,13436
2017-06-02T11:20:39.801Z,11512
2017-06-02T11:21:39.759Z,12604
2017-06-02T11:22:40.367Z,11992
2017-06-02T11:23:40.149Z,12116
2017-06-02T11:24:40.048Z,10856
2017-06-02T11:25:40.368Z,10600
2017-06-02T11:26:40.036Z,11032
2017-06-02T11:27:40.046Z,9660
2017-06-02T11:28:40.037Z,10348
2017-06-02T11:29:40.018Z,10332
2017-06-02T11:30:40.313Z,10260
2017-06-02T11:31:39.726Z,10128
2017-06-02T11:32:39.727Z,10164
2017-06-02T11:33:40.118Z,9920
2017-06-02T11:34:40.037Z,10084
2017-06-02T11:35:40.003Z,9900
2017-06-02T11:36:39.997Z,10124
2017-06-02T11:37:39.673Z,9964
2017-06-02T11:38:39.985Z,10016
2017-06-02T11:39:39.979Z,10052
2017-06-02T11:40:39.985Z,10068
2017-06-02T11:41:39.956Z,9996
2017-06-02T11:42:40.264Z,9816
2017-06-02T11:43:39.699Z,9812
2017-06-02T11:44:39.968Z,9760
2017-06-02T11:45:39.655Z,7056
2017-06-02T11:46:39.945Z,9560
2017-06-02T11:47:40.248Z,9328
2017-06-02T11:48:39.629Z,9352
2017-06-02T11:49:39.645Z,9336
2017-06-02T11:50:39.925Z,8992
2017-06-02T11:51:40.246Z,9168
2017-06-02T11:52:39.309Z,9124
2017-06-02T11:53:40.221Z,9156
2017-06-02T11:54:39.609Z,9004
2017-06-02T11:55:39.302Z,9064
2017-06-02T11:56:40.214Z,8964
2017-06-02T11:57:40.213Z,8968
2017-06-02T11:58:40.204Z,9048
2017-06-02T11:59:40.191Z,9064
2017-06-02T12:00:39.990Z,8988
2017-06-02T12:01:39.894Z,8972
2017-06-02T12:02:39.567Z,9068
2017-06-02T12:03:39.868Z,9104
2017-06-02T12:04:39.549Z,9268
2017-06-02T12:05:39.254Z,9268
2017-06-02T12:06:39.855Z,9316
2017-06-02T12:07:39.846Z,9312
2017-06-02T12:08:40.245Z,9224
2017-06-02T12:09:40.204Z,9236
2017-06-02T12:10:40.137Z,9232
2017-06-02T12:11:39.824Z,9236
2017-06-02T12:12:39.827Z,9284
2017-06-02T12:13:40.222Z,9188
2017-06-02T12:14:39.506Z,9056
2017-06-02T12:15:39.838Z,9096
2017-06-02T12:16:40.117Z,9076
2017-06-02T12:17:40.105Z,9072
2017-06-02T12:18:39.795Z,8992
2017-06-02T12:19:39.477Z,9024
2017-06-02T12:20:39.501Z,8964
2017-06-02T12:21:40.095Z,8972
2017-06-02T12:22:40.096Z,8872
2017-06-02T12:23:39.490Z,8880
2017-06-02T12:24:39.483Z,8984
2017-06-02T12:25:39.767Z,8864
2017-06-02T12:26:39.765Z,8976
2017-06-02T12:27:40.053Z,9636
2017-06-02T12:28:39.744Z,9912
2017-06-02T12:29:39.792Z,9736
2017-06-02T12:30:39.422Z,9872
2017-06-02T12:31:39.749Z,10052
2017-06-02T12:32:39.724Z,9800
2017-06-02T12:33:39.750Z,9632
2017-06-02T12:34:39.713Z,9364
2017-06-02T12:35:40.054Z,9272
2017-06-02T12:36:39.416Z,9140
2017-06-02T12:37:39.720Z,9116
2017-06-02T12:38:39.715Z,9236
2017-06-02T12:39:39.704Z,9072
2017-06-02T12:40:39.730Z,8800
2017-06-02T12:41:39.707Z,8600
2017-06-02T12:42:39.692Z,8432
2017-06-02T12:43:39.980Z,8500
2017-06-02T12:44:39.685Z,8448
2017-06-02T12:45:40.039Z,8560
2017-06-02T12:46:39.982Z,8380
2017-06-02T12:47:39.712Z,7424
2017-06-02T12:48:39.982Z,8396
2017-06-02T12:49:39.650Z,8416
2017-06-02T12:50:39.960Z,8564
2017-06-02T12:51:39.947Z,8884
2017-06-02T12:52:39.973Z,8784
2017-06-02T12:53:39.662Z,8464
2017-06-02T12:54:39.949Z,8400
2017-06-02T12:55:39.934Z,8208
2017-06-02T12:56:39.968Z,8348
2017-06-02T12:57:39.934Z,8260
2017-06-02T12:58:39.301Z,8212
2017-06-02T12:59:39.921Z,8144
2017-06-02T13:00:39.929Z,8196
2017-06-02T13:01:39.921Z,8208
2017-06-02T13:02:39.650Z,8172
2017-06-02T13:03:39.910Z,8136
2017-06-02T13:04:39.601Z,8192
2017-06-02T13:05:39.887Z,8052
2017-06-02T13:06:39.611Z,7844
2017-06-02T13:07:39.908Z,7724
2017-06-02T13:08:39.653Z,7616
2017-06-02T13:09:39.991Z,7564
2017-06-02T13:10:39.631Z,7476
2017-06-02T13:11:39.560Z,7464
2017-06-02T13:12:39.574Z,7496
2017-06-02T13:13:39.964Z,7480
2017-06-02T13:14:39.262Z,7380
2017-06-02T13:15:39.565Z,7292
2017-06-02T13:16:39.260Z,7212
2017-06-02T13:17:39.956Z,7184
2017-06-02T13:18:38.916Z,6732
2017-06-02T13:19:39.840Z,6840
2017-06-02T13:20:39.533Z,7088
2017-06-02T13:21:39.529Z,6720
2017-06-02T13:22:39.511Z,6960
2017-06-02T13:23:39.512Z,6768
2017-06-02T13:24:39.814Z,6808
2017-06-02T13:25:39.806Z,6556
2017-06-02T13:26:39.795Z,7100
2017-06-02T13:27:39.822Z,7152
2017-06-02T13:28:39.479Z,7112
2017-06-02T13:29:39.780Z,7152
2017-06-02T13:30:39.781Z,6880